LKMTLZIB

Guest
Details From LKMT - Ostrava Mosnov
To LZIB - Bratislava/M.R. Stefanik
Flight Number -
Tags generated
Created
Modified
Stats Distance 98 nm / 182 km
Max Altitude 8,800 ft / 2,682 m
Waypoints 3
Social Downloads 0
Likes 0
Share VATSIM

Download

Looking for another format? Having issues loading an existing format? Contact us
Advertisement - Login to hide

Notes

Basic altitude profile: - Ascent Rate: 2500ft/min - Ascent Speed: 250kts - Cruise Altitude: 35000ft - Cruise Speed: 420kts - Descent Rate: 1500ft/min - Descent Speed: 250kts Options: - Use NATs: yes - Use PACOTS: yes - Use low airways: yes - Use high airways: yes

Route

LKMT MAVOR LZIB

ID Type Via Altitude Latitude Longitude Leg Dist Tot Dist Heading (true) Name
O LKMT APT - 0 ft / 0 m 49.69622˚ 18.11085˚ - 0 nm - Ostrava Mosnov
MAVOR FIX - 8,800 ft / 2,682 m 48.82139˚ 17.53750˚ 57 nm 57 nm 203° / 203° -
O LZIB APT - 0 ft / 0 m 48.16831˚ 17.21560˚ 41 nm 98 nm 198° / 198° Bratislava/M.R. Stefanik

Altitude Profile

Advertisement - Login to hide

LKMT

Details ICAO LKMT (OSR)
Name Ostrava Mosnov
Region Czech Republic
Timezone Europe/Prague (UTC+1.0)
Stats Elevation 843 ft / 257 m (AMSL)
Location 49.696217° 18.110855°
Runways 1
Magnetic Variation 4.764° E

METAR

LKMT 151530Z 20007KT CAVOK 04/M01 Q1000 NOSIG

Decode

TAF

TAF LKMT 150500Z 1506/1612 20008KT 9999 BKN035 TEMPO 1506/1513 21014G24KT 7000 -RASN BKN017 BECMG 1518/1520 VRB02KT TEMPO 1603/1608 3000 BR SCT005

Decode

Departure Runways

ID Width Length Bearing (true) Bearing (mag) Surface Threshold Offset Overrun Length
04 207 ft / 63 m 11,532 ft / 3,515 m 46.29° 41.53° Concrete 0 ft / 0 m 52 ft / 16 m
22 207 ft / 63 m 11,532 ft / 3,515 m 226.31° 221.55° Concrete 0 ft / 0 m 49 ft / 15 m

LZIB

Details ICAO LZIB (BTS)
Name Bratislava/M.R. Stefanik
Region Slovakia
Timezone Europe/Bratislava (UTC+1.0)
Stats Elevation 436 ft / 133 m (AMSL)
Location 48.168314° 17.215597°
Runways 2
Magnetic Variation 4.405° E

METAR

LZIB 151530Z 28006KT CAVOK 07/M00 Q1001 NOSIG

Decode

TAF

Not found

Destination Runways

ID Width Length Bearing (true) Bearing (mag) Surface Threshold Offset Overrun Length
04 197 ft / 60 m 9,540 ft / 2,908 m 43.80° 39.40° Concrete 0 ft / 0 m 7 ft / 2 m
13 148 ft / 45 m 9,688 ft / 2,953 m 134.02° 129.62° Concrete 0 ft / 0 m 98 ft / 30 m
22 197 ft / 60 m 9,540 ft / 2,908 m 223.82° 219.42° Concrete 0 ft / 0 m 49 ft / 15 m
31 148 ft / 45 m 9,688 ft / 2,953 m 314.04° 309.64° Concrete 0 ft / 0 m 810 ft / 247 m

Approach Navaids

Runway Type Ident Frequency Range Bearing (true) Bearing (mag) Slope Elevation
22 Glidescope OKR 108.30 MHz 10 nm / 19 km 223.83° 219.42° 3.00° 436 ft / 133 m (AMSL)
22 DME OKR 108.30 MHz 25 nm / 46 km - - - 436 ft / 133 m (AMSL)
31 Glidescope OB 110.70 MHz 10 nm / 19 km 313.99° 309.58° 3.00° 433 ft / 132 m (AMSL)
31 DME OB 110.70 MHz 25 nm / 46 km - - - 433 ft / 132 m (AMSL)

Popular Alternatives